Airfield :
LOGIN :

Register | Disclaimer

   EN    FR    IT 

 










Legend :    VFR   Marginal VFR   IFR   Intensive IFR   Very Intensive IFR
Visi :
Ceiling :
>= 8 km
>= 3000ft
5 to 8 km
1000 to 3000 ft
1500m to 5 km
500 to 1000 ft
800 to 1500m
200 to 500 ft
< 800m
< 200 ft
Symbols :   Thunderstorms  Fog  Heavy snow  Heavy precipitations  Wind > 20 kt
SIGMETs :     Misc.  Thunderstorms  Icing  Turbulence  Mountain Waves  Volcanic Ashes






- Airport Elevation : 297 ft


EGVP - Middle Wallop

CURRENT METAR :
  • 171250Z 21008KT 9999 FEW012 FEW020CB BKN040 14/11 Q1004 TEMPO 5000 SHRA SCT020CB RMK BLU TEMPO WHT

EXPIRED METARs :
  • 171243Z 20009KT 9999 -SHRA FEW012 SCT020CB 13/11 Q1004 BECMG FEW020 RMK WHT BECMG BLU
  • 171223Z 22009KT 9999 FEW016 SCT020CB 13/10 Q1004 TEMPO 5000 SHRA SCT014CB RMK WHT TEMPO GRN
  • 171150Z 21010KT 9999 FEW015 14/10 Q1004 TEMPO 5000 SHRA BKN015CB RMK BLU TEMPO WHT
  • 171122Z 20008KT 9999 FEW008 13/11 Q1004 TEMPO SCT015 RMK BLU TEMPO WHT
  • 171105Z 18009KT 9999 FEW005 13/12 Q1004 TEMPO SCT015 RMK BLU TEMPO WHT
  • 171050Z 16008KT 9999 SCT004 SCT012 FEW015CB 12/11 Q1004 RESHRA BECMG FEW004 SCT015 RMK YLO2 BECMG WHT
  • 171030Z 14008KT 9999 -SHRA FEW001 SCT004 SCT017TCU 11/11 Q1005 TEMPO 5000 BKN007 RMK YLO2 TEMPO GRN
  • 171020Z 13008KT 7000 -SHRA FEW001 SCT005 BKN010 SCT020TCU 11/11 Q1005 TEMPO 3000 SHRA FEW005 RMK YLO1 TEMPO YLO1
  • 171015Z 14007KT 7000 BR FEW001 SCT010 SCT020TCU 11/10 Q1005 RESHRA TEMPO 3000 SHRA RMK GRN TEMPO YLO1

TAF TAF EGVP
Valid from the 17 at 12:00 until the 17 at 18:00 UTC


171057Z 1712/1718 20010KT 9999 SCT030
TEMPO 1712/1718 21015G25KT 6000 SHRA BKN015TCU
PROB40
TEMPO 1712/1718 3000 +SHRA SCT005 BKN010CB
ATIS : +44 1980 674 142



MET'MAP, your aeronautical weather chart ! - Copyright ORBIFLY December 2007 - Disclaimer

ORBIFLY MET'MAP TEAM :

Programming & Development : Alexandra Zaïnal
Concept & Development : Baudouin d'Aumeries
Co-Development & Prog : Marc-Olivier Méhu
Technical & hardware support : Manuel Goepfert

Contact : metmap@orbifly.com




SOURCES & CREDITS :

   NOAA